Helen Virginia — WHU625 — position and weather

sailwx.info

Track history (hours):
 
Tides and Currents Weather Stations Pressure Air Temp Water Temp Dewpoint Dewpoint Depression Visibility Wind Speed Wind Dir Waves Ship Positions

Helen Virginia

Last reported at 2018-May-14 20:57 UTC. Time now 2018-Jun-23 13:56 UTC.
Position N 38°36' W 090°12'.
Warning: this ship's position is 39 days out of date.

Type: Tug. MMSI: 338208161.

Date/timePositionNaut miles runAvg speedWind from/ knotsBaromVisibWave heightAir tempDewpointWater temp
2018-May-14 20:57N 38°36' W 090°12'0 0.5
2018-May-14 20:30N 38°36' W 090°11'0 0.0
2018-May-14 20:00N 38°36' W 090°11'0 0.1
2018-May-14 19:27N 38°36' W 090°11'0 0.0
2018-May-14 17:56N 38°36' W 090°11'0 0.7
2018-May-14 17:29N 38°36' W 090°12'0 0.4
2018-May-14 16:59N 38°36' W 090°12'0 0.0
2018-May-14 16:30N 38°36' W 090°12'0 0.0
2018-May-14 16:00N 38°36' W 090°12'0 0.2
2018-May-14 15:29N 38°36' W 090°12'0 0.0
2018-May-14 14:59N 38°36' W 090°12'0 0.7
2018-May-14 14:28N 38°36' W 090°11'0 0.3
2018-May-14 13:58N 38°36' W 090°11'2 0.0
2018-May-12 18:26N 38°35' W 090°13'4 9.6
2018-May-12 17:59N 38°39' W 090°11'1 1.4
2018-May-12 17:27N 38°39' W 090°11'0 0.6
2018-May-12 16:59N 38°39' W 090°11'2 3.5
2018-May-12 16:29N 38°37' W 090°11'1 1.4
2018-May-12 15:27N 38°36' W 090°11'0 0.1
2018-May-12 14:58N 38°36' W 090°11'0 0.7
2018-May-12 14:28N 38°36' W 090°11'4 0.1
2018-May-10 18:05N 38°33' W 090°15'0 1.1
2018-May-10 18:00N 38°33' W 090°15'0 0.0
2018-May-10 17:24N 38°33' W 090°15'0 0.1
2018-May-10 16:25N 38°33' W 090°15'4 9.1
2018-May-10 15:59N 38°36' W 090°12'0 0.8
2018-May-10 15:30N 38°36' W 090°11'0 0.0
2018-May-10 14:58N 38°36' W 090°11'0 0.1
2018-May-10 14:30N 38°36' W 090°11'0 0.0
2018-May-10 14:00N 38°36' W 090°11'2 2.8
2018-May-10 13:18N 38°35' W 090°13'1 4.0
2018-May-10 12:58N 38°34' W 090°14'0 0.0
2018-May-08 12:49N 38°33' W 090°14'3 0.2
2018-May-07 19:57N 38°35' W 090°12'0 0.0
2018-May-07 19:14N 38°35' W 090°12'0 0.1
2018-May-07 18:56N 38°35' W 090°12'0 0.0
2018-May-07 18:27N 38°35' W 090°12'0 0.4
2018-May-07 17:59N 38°36' W 090°12'0 0.1
2018-May-07 17:20N 38°36' W 090°12'0 0.0
2018-May-07 17:00N 38°36' W 090°12'0 0.0
2018-May-07 16:27N 38°36' W 090°12'4 0.1
2018-May-06 14:30N 38°33' W 090°15'0 0.1
2018-May-06 13:57N 38°33' W 090°15'0 0.0
2018-May-06 13:18N 38°33' W 090°15'0 0.1
2018-May-06 12:52N 38°33' W 090°15'0 0.0
2018-May-05 18:35N 38°33' W 090°14'0 0.2
2018-May-05 18:30N 38°33' W 090°14'0 0.1
2018-May-05 17:59N 38°33' W 090°14'  
Track history (hours):
 
Tides and Currents Weather Stations Pressure Air Temp Water Temp Dewpoint Dewpoint Depression Visibility Wind Speed Wind Dir Waves Ship Positions

Helen Virginia

Last reported at 2018-May-14 20:57 UTC. Time now 2018-Jun-23 13:56 UTC.
Position N 38°36' W 090°12'.
Warning: this ship's position is 39 days out of date.

Type: Tug. MMSI: 338208161.

Date/timePositionNaut miles runAvg speedWind from/ knotsBaromVisibWave heightAir tempDewpointWater temp
2018-May-14 20:57N 38°36' W 090°12'0 0.5
2018-May-14 20:30N 38°36' W 090°11'0 0.0
2018-May-14 20:00N 38°36' W 090°11'0 0.1
2018-May-14 19:27N 38°36' W 090°11'0 0.0
2018-May-14 17:56N 38°36' W 090°11'0 0.7
2018-May-14 17:29N 38°36' W 090°12'0 0.4
2018-May-14 16:59N 38°36' W 090°12'0 0.0
2018-May-14 16:30N 38°36' W 090°12'0 0.0
2018-May-14 16:00N 38°36' W 090°12'0 0.2
2018-May-14 15:29N 38°36' W 090°12'0 0.0
2018-May-14 14:59N 38°36' W 090°12'0 0.7
2018-May-14 14:28N 38°36' W 090°11'0 0.3
2018-May-14 13:58N 38°36' W 090°11'2 0.0
2018-May-12 18:26N 38°35' W 090°13'4 9.6
2018-May-12 17:59N 38°39' W 090°11'1 1.4
2018-May-12 17:27N 38°39' W 090°11'0 0.6
2018-May-12 16:59N 38°39' W 090°11'2 3.5
2018-May-12 16:29N 38°37' W 090°11'1 1.4
2018-May-12 15:27N 38°36' W 090°11'0 0.1
2018-May-12 14:58N 38°36' W 090°11'0 0.7
2018-May-12 14:28N 38°36' W 090°11'4 0.1
2018-May-10 18:05N 38°33' W 090°15'0 1.1
2018-May-10 18:00N 38°33' W 090°15'0 0.0
2018-May-10 17:24N 38°33' W 090°15'0 0.1
2018-May-10 16:25N 38°33' W 090°15'4 9.1
2018-May-10 15:59N 38°36' W 090°12'0 0.8
2018-May-10 15:30N 38°36' W 090°11'0 0.0
2018-May-10 14:58N 38°36' W 090°11'0 0.1
2018-May-10 14:30N 38°36' W 090°11'0 0.0
2018-May-10 14:00N 38°36' W 090°11'2 2.8
2018-May-10 13:18N 38°35' W 090°13'1 4.0
2018-May-10 12:58N 38°34' W 090°14'0 0.0
2018-May-08 12:49N 38°33' W 090°14'3 0.2
2018-May-07 19:57N 38°35' W 090°12'0 0.0
2018-May-07 19:14N 38°35' W 090°12'0 0.1
2018-May-07 18:56N 38°35' W 090°12'0 0.0
2018-May-07 18:27N 38°35' W 090°12'0 0.4
2018-May-07 17:59N 38°36' W 090°12'0 0.1
2018-May-07 17:20N 38°36' W 090°12'0 0.0
2018-May-07 17:00N 38°36' W 090°12'0 0.0
2018-May-07 16:27N 38°36' W 090°12'4 0.1
2018-May-06 14:30N 38°33' W 090°15'0 0.1
2018-May-06 13:57N 38°33' W 090°15'0 0.0
2018-May-06 13:18N 38°33' W 090°15'0 0.1
2018-May-06 12:52N 38°33' W 090°15'0 0.0
2018-May-05 18:35N 38°33' W 090°14'0 0.2
2018-May-05 18:30N 38°33' W 090°14'0 0.1
2018-May-05 17:59N 38°33' W 090°14'  

Dump ship's entire track history